LTAUOIII

Guest
Details From LTAU - ERKILET
To OIII - Teheran Mehrabad Intl
Flight Number -
Tags generated
Created
Modified
Stats Distance 793 nm / 1,470 km
Max Altitude 35,000 ft / 10,668 m
Waypoints 13
Social Downloads 2
Likes 0
Share VATSIM

Download

Looking for another format? Having issues loading an existing format? Contact us
Advertisement - Login to hide

Notes

Basic altitude profile: - Ascent Rate: 2500ft/min - Ascent Speed: 250kts - Cruise Altitude: 35000ft - Cruise Speed: 420kts - Descent Rate: 1500ft/min - Descent Speed: 250kts Options: - Use NATs: no - Use PACOTS: no - Use low airways: no - Use high airways: yes

Route

LTAU GEM UG8 EZS UT36 DERIL UG8 ALRAM G208 TOTBO UL124 ZAJ G208 PAROT OIII

ID Type Via Altitude Latitude Longitude Leg Dist Tot Dist Heading (true) Name
O LTAU APT - 0 ft / 0 m 38.77038˚ 35.49543˚ - 0 nm - ERKILET
GEM VOR - 11,100 ft / 3,383 m 39.15528˚ 36.02917˚ 33 nm 33 nm 47° / 47° GEMEREK VOR-DME
BULUT FIX UG8 (AWY-HI) 35,000 ft / 10,668 m 38.75972˚ 38.90056˚ 136 nm 170 nm 99° / 101° -
EZS VOR UG8 (AWY-HI) 35,000 ft / 10,668 m 38.70694˚ 39.22444˚ 15 nm 185 nm 102° / 102° ELAZIG VOR-DME
RENGI FIX UT36 (AWY-HI) 35,000 ft / 10,668 m 38.46389˚ 41.08000˚ 88 nm 273 nm 99° / 100° -
ULKEM FIX UT36 (AWY-HI) 35,000 ft / 10,668 m 38.11056˚ 43.36472˚ 109 nm 383 nm 100° / 102° -
DERIL FIX UT36 (AWY-HI) 35,000 ft / 10,668 m 37.73444˚ 44.41500˚ 54 nm 438 nm 114° / 115° -
ALRAM FIX UG8 (AWY-HI) 35,000 ft / 10,668 m 37.70833˚ 44.62667˚ 10 nm 448 nm 99° / 99° -
UMH VOR G208 (AWY-HI) 35,000 ft / 10,668 m 37.68719˚ 45.08433˚ 21 nm 470 nm 93° / 93° UROMIYEH VOR-DME
TOTBO FIX G208 (AWY-HI) 35,000 ft / 10,668 m 37.57417˚ 45.47917˚ 19 nm 490 nm 110° / 110° -
ZAJ VOR UL124 (AWY-HI) 29,600 ft / 9,022 m 36.59144˚ 48.69047˚ 164 nm 655 nm 110° / 112° ZANJAN VORTAC
PAROT FIX G208 (AWY-HI) 29,000 ft / 8,839 m 36.16111˚ 49.96556˚ 66 nm 721 nm 112° / 113° -
O OIII APT - 0 ft / 0 m 35.69263˚ 51.31741˚ 71 nm 793 nm 113° / 114° Teheran Mehrabad Intl

Altitude Profile

Advertisement - Login to hide

Weather


0- 5 10 15 20 25 30 35+ Temperature / ° C

Clouds and Precipitation
Forecast for 2017-12-15 06:00 UTC. Updated an hour ago

Ground ~20,000 ft ~40,000 ft Winds

LTAU

Details ICAO LTAU (ASR)
Name ERKILET
Region Turkey
Timezone Europe/Istanbul (UTC+3.0)
Stats Elevation 3,463 ft / 1,056 m (AMSL)
Location 38.770384° 35.495427°
Runways 1
Magnetic Variation 5.654° E

METAR

LTAU 150220Z 05004KT 7000 NSC M04/M05 Q1019 TEMPO FM0400 3200 BR

Decode

TAF

TAF LTAU 141640Z 1418/1518 VRB02KT 8000 NSC TEMPO 1504/1508 3200 BR= TAF LTCC 141640Z 1418/1518 VRB02KT CAVOK

Decode

Departure Runways

ID Width Length Bearing (true) Bearing (mag) Surface Threshold Offset Overrun Length
07 145 ft / 44 m 9,822 ft / 2,994 m 76.29° 70.64° Concrete 0 ft / 0 m 500 ft / 152 m
25 145 ft / 44 m 9,822 ft / 2,994 m 256.31° 250.66° Concrete 0 ft / 0 m 500 ft / 152 m

OIII

Details ICAO OIII (THR)
Name Teheran Mehrabad Intl
Region Iran
Timezone Asia/Tehran (UTC+3.5)
Stats Elevation 3,962 ft / 1,208 m (AMSL)
Location 35.692631° 51.317409°
Runways 3
Magnetic Variation 4.729° E

METAR

OIII 150200Z 00000KT CAVOK 01/M06 Q1019 A3009 NOSIG

Decode

TAF

TAF OIII 142300Z 1500/1606 13004MPS CAVOK TEMPO 1518/1524 22005MPS FEW035CB SCT040 BKN100

Decode

Destination Runways

ID Width Length Bearing (true) Bearing (mag) Surface Threshold Offset Overrun Length
09 131 ft / 40 m 1,553 ft / 473 m 88.25° 83.52° Concrete 0 ft / 0 m 160 ft / 49 m
11L 148 ft / 45 m 13,077 ft / 3,986 m 109.70° 104.97° Asphalt 0 ft / 0 m 1,000 ft / 305 m
11R 197 ft / 60 m 13,227 ft / 4,032 m 109.74° 105.01° Asphalt 3,075 ft / 937 m 1,000 ft / 305 m
27 131 ft / 40 m 1,553 ft / 473 m 268.25° 263.52° Concrete 0 ft / 0 m 90 ft / 27 m
29L 197 ft / 60 m 13,227 ft / 4,032 m 289.77° 285.04° Asphalt 0 ft / 0 m 280 ft / 85 m
29R 148 ft / 45 m 13,077 ft / 3,986 m 289.72° 284.99° Asphalt 0 ft / 0 m 400 ft / 122 m

Approach Navaids

Runway Type Ident Frequency Range Bearing (true) Bearing (mag) Slope Elevation
29L Localiser ITHL 109.90 MHz 18 nm / 33 km 290.97° 286.24° - 3,979 ft / 1,213 m (AMSL)
29L Glidescope ITHL 109.90 MHz 10 nm / 19 km 289.76° 285.03° 3.30° 3,804 ft / 1,159 m (AMSL)
29L DME ITHL 109.90 MHz 18 nm / 33 km - - - 3,804 ft / 1,159 m (AMSL)